Main page
METAR-TAF:

METAR-TAF

Airports :

General Enrique Mosconi International Airport

Comodoro Rivadavia, Argentina

latitude: 45-47S, longitude: 067-30W, elevation: 58 m

Current weather observation

The report was made 44 minutes ago, at 22:00 UTC
Wind 2 kt from the West
Temperature 3°C
Humidity 93%
Pressure 1017 hPa
Visibility 10 km or more
no clouds below 1500 m and no cumulonimbus

METAR: SAVC 142200Z 26002KT CAVOK 03/02 Q1017

Time: 19:44 (22:44 UTC)

Forecast

The report was made 5 hours and 44 minutes ago, at 17:00 UTC
Forecast valid from 14 at 18 UTC to 15 at 18 UTC
Wind 5 kt from variable directions
Visibility 10 km or more
no clouds below 1500 m and no cumulonimbus
Becoming
from 14 at 23 UTC to 15 at 01 UTC
Wind 10 kt from the West/Northwest

TAF: SAVC 141700Z 1418/1518 VRB05KT CAVOK TX12/1418Z TN05/1511Z BECMG 1423/1501 29010KT

Weather observations and forecasts of more than 4000 airports (METAR and TAF reports).

The available stations are represented by yellow and red dots on the map.

Hover mouse over dot to see the name of the station.

Then click to see weather observations and forecasts.

To change the map : click on the green buttons with a black cross to zoom in, on the green button with a dash to zoom out, or on the green arrows for adjacent maps.


METAR-TAF: